sensor_id;sensor_type;location;lat;lon;timestamp;P1;durP1;ratioP1;P2;durP2;ratioP2
84766;SDS011;74995;49.824;10.994;2024-02-16T00:00:06;4.55;;;2.97;;
84766;SDS011;74995;49.824;10.994;2024-02-16T00:02:32;3.78;;;2.38;;
84766;SDS011;74995;49.824;10.994;2024-02-16T00:07:22;4.60;;;3.05;;
84766;SDS011;74995;49.824;10.994;2024-02-16T00:09:48;3.90;;;2.72;;
84766;SDS011;74995;49.824;10.994;2024-02-16T00:12:13;2.97;;;1.90;;
84766;SDS011;74995;49.824;10.994;2024-02-16T00:14:39;3.38;;;2.22;;
84766;SDS011;74995;49.824;10.994;2024-02-16T00:17:05;4.47;;;2.30;;
84766;SDS011;74995;49.824;10.994;2024-02-16T00:19:31;5.13;;;3.05;;
84766;SDS011;74995;49.824;10.994;2024-02-16T00:21:57;7.10;;;3.33;;
84766;SDS011;74995;49.824;10.994;2024-02-16T00:24:22;6.55;;;3.47;;
84766;SDS011;74995;49.824;10.994;2024-02-16T00:26:47;4.70;;;2.80;;
84766;SDS011;74995;49.824;10.994;2024-02-16T00:31:38;4.63;;;2.80;;
84766;SDS011;74995;49.824;10.994;2024-02-16T00:34:04;4.55;;;2.42;;
84766;SDS011;74995;49.824;10.994;2024-02-16T00:36:29;4.38;;;2.85;;
84766;SDS011;74995;49.824;10.994;2024-02-16T00:38:55;6.95;;;4.20;;
84766;SDS011;74995;49.824;10.994;2024-02-16T00:41:21;5.50;;;3.47;;
84766;SDS011;74995;49.824;10.994;2024-02-16T00:43:48;4.43;;;3.13;;
84766;SDS011;74995;49.824;10.994;2024-02-16T00:46:14;5.10;;;3.30;;
84766;SDS011;74995;49.824;10.994;2024-02-16T00:48:39;5.65;;;3.60;;
84766;SDS011;74995;49.824;10.994;2024-02-16T00:53:30;6.53;;;3.20;;
84766;SDS011;74995;49.824;10.994;2024-02-16T00:55:55;4.32;;;2.90;;
84766;SDS011;74995;49.824;10.994;2024-02-16T00:58:21;4.53;;;2.78;;
84766;SDS011;74995;49.824;10.994;2024-02-16T01:00:46;4.85;;;3.05;;
84766;SDS011;74995;49.824;10.994;2024-02-16T01:03:11;3.55;;;2.72;;
84766;SDS011;74995;49.824;10.994;2024-02-16T01:05:38;4.30;;;2.75;;
84766;SDS011;74995;49.824;10.994;2024-02-16T01:08:05;3.25;;;2.05;;
84766;SDS011;74995;49.824;10.994;2024-02-16T01:12:55;3.83;;;2.33;;
84766;SDS011;74995;49.824;10.994;2024-02-16T01:15:21;2.92;;;1.98;;
84766;SDS011;74995;49.824;10.994;2024-02-16T01:17:46;3.65;;;2.13;;
84766;SDS011;74995;49.824;10.994;2024-02-16T01:22:37;3.83;;;2.20;;
84766;SDS011;74995;49.824;10.994;2024-02-16T01:27:28;4.05;;;2.20;;
84766;SDS011;74995;49.824;10.994;2024-02-16T01:32:19;2.47;;;2.13;;
84766;SDS011;74995;49.824;10.994;2024-02-16T01:34:44;3.97;;;2.10;;
84766;SDS011;74995;49.824;10.994;2024-02-16T01:37:12;4.43;;;1.92;;
84766;SDS011;74995;49.824;10.994;2024-02-16T01:39:37;3.53;;;2.30;;
84766;SDS011;74995;49.824;10.994;2024-02-16T01:42:03;3.38;;;2.08;;
84766;SDS011;74995;49.824;10.994;2024-02-16T01:46:53;3.27;;;2.30;;
84766;SDS011;74995;49.824;10.994;2024-02-16T01:49:18;4.15;;;2.60;;
84766;SDS011;74995;49.824;10.994;2024-02-16T01:51:44;3.17;;;2.25;;
84766;SDS011;74995;49.824;10.994;2024-02-16T01:54:11;3.75;;;2.15;;
84766;SDS011;74995;49.824;10.994;2024-02-16T01:56:37;3.53;;;2.70;;
84766;SDS011;74995;49.824;10.994;2024-02-16T01:59:02;3.15;;;2.22;;
84766;SDS011;74995;49.824;10.994;2024-02-16T02:01:29;5.40;;;2.25;;
84766;SDS011;74995;49.824;10.994;2024-02-16T02:03:55;3.13;;;2.13;;
84766;SDS011;74995;49.824;10.994;2024-02-16T02:06:20;3.13;;;2.25;;
84766;SDS011;74995;49.824;10.994;2024-02-16T02:11:11;3.33;;;2.20;;
84766;SDS011;74995;49.824;10.994;2024-02-16T02:13:37;5.95;;;2.85;;
84766;SDS011;74995;49.824;10.994;2024-02-16T02:16:02;3.25;;;2.42;;
84766;SDS011;74995;49.824;10.994;2024-02-16T02:18:29;3.15;;;2.22;;
84766;SDS011;74995;49.824;10.994;2024-02-16T02:23:20;3.20;;;1.90;;
84766;SDS011;74995;49.824;10.994;2024-02-16T02:25:45;4.35;;;2.47;;
84766;SDS011;74995;49.824;10.994;2024-02-16T02:28:12;3.35;;;2.55;;
84766;SDS011;74995;49.824;10.994;2024-02-16T02:30:38;3.33;;;2.00;;
84766;SDS011;74995;49.824;10.994;2024-02-16T02:33:04;4.78;;;2.65;;
84766;SDS011;74995;49.824;10.994;2024-02-16T02:35:29;3.45;;;2.33;;
84766;SDS011;74995;49.824;10.994;2024-02-16T02:37:55;3.83;;;2.20;;
84766;SDS011;74995;49.824;10.994;2024-02-16T02:40:20;4.57;;;2.95;;
84766;SDS011;74995;49.824;10.994;2024-02-16T02:45:11;3.37;;;2.30;;
84766;SDS011;74995;49.824;10.994;2024-02-16T02:47:36;4.07;;;2.58;;
84766;SDS011;74995;49.824;10.994;2024-02-16T02:52:27;3.88;;;2.30;;
84766;SDS011;74995;49.824;10.994;2024-02-16T02:54:53;3.15;;;2.25;;
84766;SDS011;74995;49.824;10.994;2024-02-16T02:59:43;4.70;;;2.70;;
84766;SDS011;74995;49.824;10.994;2024-02-16T03:02:10;3.25;;;2.47;;
84766;SDS011;74995;49.824;10.994;2024-02-16T03:07:01;5.50;;;2.73;;
84766;SDS011;74995;49.824;10.994;2024-02-16T03:09:26;4.15;;;2.05;;
84766;SDS011;74995;49.824;10.994;2024-02-16T03:11:51;3.55;;;2.15;;
84766;SDS011;74995;49.824;10.994;2024-02-16T03:14:18;4.13;;;2.22;;
84766;SDS011;74995;49.824;10.994;2024-02-16T03:16:43;5.22;;;2.72;;
84766;SDS011;74995;49.824;10.994;2024-02-16T03:21:34;3.77;;;2.53;;
84766;SDS011;74995;49.824;10.994;2024-02-16T03:24:00;3.95;;;2.25;;
84766;SDS011;74995;49.824;10.994;2024-02-16T03:26:29;3.17;;;2.00;;
84766;SDS011;74995;49.824;10.994;2024-02-16T03:31:21;4.85;;;2.55;;
84766;SDS011;74995;49.824;10.994;2024-02-16T03:33:48;3.97;;;2.38;;
84766;SDS011;74995;49.824;10.994;2024-02-16T03:36:14;3.28;;;2.47;;
84766;SDS011;74995;49.824;10.994;2024-02-16T03:38:43;3.83;;;2.50;;
84766;SDS011;74995;49.824;10.994;2024-02-16T03:41:13;3.35;;;2.08;;
84766;SDS011;74995;49.824;10.994;2024-02-16T03:43:40;4.70;;;2.38;;
84766;SDS011;74995;49.824;10.994;2024-02-16T03:46:05;5.22;;;2.50;;
84766;SDS011;74995;49.824;10.994;2024-02-16T03:48:31;4.55;;;2.88;;
84766;SDS011;74995;49.824;10.994;2024-02-16T03:50:56;4.05;;;3.47;;
84766;SDS011;74995;49.824;10.994;2024-02-16T03:53:21;5.03;;;2.67;;
84766;SDS011;74995;49.824;10.994;2024-02-16T03:55:47;4.63;;;2.67;;
84766;SDS011;74995;49.824;10.994;2024-02-16T03:58:12;6.28;;;2.97;;
84766;SDS011;74995;49.824;10.994;2024-02-16T04:00:37;4.15;;;3.28;;
84766;SDS011;74995;49.824;10.994;2024-02-16T04:05:29;5.80;;;2.10;;
84766;SDS011;74995;49.824;10.994;2024-02-16T04:07:57;3.63;;;2.22;;
84766;SDS011;74995;49.824;10.994;2024-02-16T04:10:26;3.38;;;2.60;;
84766;SDS011;74995;49.824;10.994;2024-02-16T04:12:53;4.38;;;2.47;;
84766;SDS011;74995;49.824;10.994;2024-02-16T04:17:44;3.57;;;2.40;;
84766;SDS011;74995;49.824;10.994;2024-02-16T04:20:09;5.53;;;2.22;;
84766;SDS011;74995;49.824;10.994;2024-02-16T04:22:36;3.90;;;2.22;;
84766;SDS011;74995;49.824;10.994;2024-02-16T04:25:02;3.30;;;2.03;;
84766;SDS011;74995;49.824;10.994;2024-02-16T04:27:31;4.25;;;2.67;;
84766;SDS011;74995;49.824;10.994;2024-02-16T04:29:56;3.60;;;2.20;;
84766;SDS011;74995;49.824;10.994;2024-02-16T04:32:22;3.10;;;2.05;;
84766;SDS011;74995;49.824;10.994;2024-02-16T04:34:50;4.38;;;2.78;;
84766;SDS011;74995;49.824;10.994;2024-02-16T04:37:17;4.25;;;2.45;;
84766;SDS011;74995;49.824;10.994;2024-02-16T04:39:44;3.42;;;1.92;;
84766;SDS011;74995;49.824;10.994;2024-02-16T04:42:09;2.78;;;2.00;;
84766;SDS011;74995;49.824;10.994;2024-02-16T04:47:03;3.95;;;1.85;;
84766;SDS011;74995;49.824;10.994;2024-02-16T04:49:29;6.53;;;2.17;;
84766;SDS011;74995;49.824;10.994;2024-02-16T04:51:55;2.58;;;1.75;;
84766;SDS011;74995;49.824;10.994;2024-02-16T04:56:45;5.07;;;2.35;;
84766;SDS011;74995;49.824;10.994;2024-02-16T04:59:11;6.22;;;2.72;;
84766;SDS011;74995;49.824;10.994;2024-02-16T05:01:36;3.92;;;2.03;;
84766;SDS011;74995;49.824;10.994;2024-02-16T05:04:01;3.58;;;1.90;;
84766;SDS011;74995;49.824;10.994;2024-02-16T05:08:52;4.70;;;2.30;;
84766;SDS011;74995;49.824;10.994;2024-02-16T05:11:18;4.45;;;2.30;;
84766;SDS011;74995;49.824;10.994;2024-02-16T05:13:44;3.90;;;2.25;;
84766;SDS011;74995;49.824;10.994;2024-02-16T05:18:35;4.50;;;2.42;;
84766;SDS011;74995;49.824;10.994;2024-02-16T05:23:25;4.50;;;2.33;;
84766;SDS011;74995;49.824;10.994;2024-02-16T05:25:51;3.85;;;2.67;;
84766;SDS011;74995;49.824;10.994;2024-02-16T05:28:16;4.38;;;2.50;;
84766;SDS011;74995;49.824;10.994;2024-02-16T05:33:07;5.43;;;2.10;;
84766;SDS011;74995;49.824;10.994;2024-02-16T05:35:32;3.15;;;1.92;;
84766;SDS011;74995;49.824;10.994;2024-02-16T05:37:59;3.08;;;1.73;;
84766;SDS011;74995;49.824;10.994;2024-02-16T05:40:31;3.53;;;1.90;;
84766;SDS011;74995;49.824;10.994;2024-02-16T05:43:08;4.10;;;2.75;;
84766;SDS011;74995;49.824;10.994;2024-02-16T05:45:34;3.15;;;1.90;;
84766;SDS011;74995;49.824;10.994;2024-02-16T05:48:00;4.50;;;2.30;;
84766;SDS011;74995;49.824;10.994;2024-02-16T05:52:51;5.50;;;1.87;;
84766;SDS011;74995;49.824;10.994;2024-02-16T05:55:17;3.80;;;2.25;;
84766;SDS011;74995;49.824;10.994;2024-02-16T05:57:46;4.00;;;2.22;;
84766;SDS011;74995;49.824;10.994;2024-02-16T06:00:11;4.10;;;2.33;;
84766;SDS011;74995;49.824;10.994;2024-02-16T06:02:38;2.90;;;1.95;;
84766;SDS011;74995;49.824;10.994;2024-02-16T06:05:03;2.95;;;1.73;;
84766;SDS011;74995;49.824;10.994;2024-02-16T06:07:29;3.60;;;2.03;;
84766;SDS011;74995;49.824;10.994;2024-02-16T06:09:55;3.40;;;1.85;;
84766;SDS011;74995;49.824;10.994;2024-02-16T06:12:21;4.18;;;2.58;;
84766;SDS011;74995;49.824;10.994;2024-02-16T06:14:47;5.47;;;2.33;;
84766;SDS011;74995;49.824;10.994;2024-02-16T06:17:13;4.72;;;1.90;;
84766;SDS011;74995;49.824;10.994;2024-02-16T06:19:39;3.42;;;2.50;;
84766;SDS011;74995;49.824;10.994;2024-02-16T06:22:05;5.50;;;2.53;;
84766;SDS011;74995;49.824;10.994;2024-02-16T06:24:31;4.68;;;2.10;;
84766;SDS011;74995;49.824;10.994;2024-02-16T06:29:21;4.10;;;2.27;;
84766;SDS011;74995;49.824;10.994;2024-02-16T06:31:47;4.47;;;2.60;;
84766;SDS011;74995;49.824;10.994;2024-02-16T06:36:38;4.20;;;2.40;;
84766;SDS011;74995;49.824;10.994;2024-02-16T06:41:28;3.73;;;2.07;;
84766;SDS011;74995;49.824;10.994;2024-02-16T06:43:54;3.08;;;2.20;;
84766;SDS011;74995;49.824;10.994;2024-02-16T06:46:19;4.32;;;1.95;;
84766;SDS011;74995;49.824;10.994;2024-02-16T06:48:44;2.92;;;2.10;;
84766;SDS011;74995;49.824;10.994;2024-02-16T06:51:10;6.20;;;2.60;;
84766;SDS011;74995;49.824;10.994;2024-02-16T06:56:00;3.93;;;2.37;;
84766;SDS011;74995;49.824;10.994;2024-02-16T06:58:26;3.95;;;2.45;;
84766;SDS011;74995;49.824;10.994;2024-02-16T07:00:51;3.20;;;2.47;;
84766;SDS011;74995;49.824;10.994;2024-02-16T07:03:16;2.90;;;2.15;;
84766;SDS011;74995;49.824;10.994;2024-02-16T07:05:43;3.38;;;1.92;;
84766;SDS011;74995;49.824;10.994;2024-02-16T07:08:08;4.90;;;3.30;;
84766;SDS011;74995;49.824;10.994;2024-02-16T07:10:33;6.63;;;3.72;;
84766;SDS011;74995;49.824;10.994;2024-02-16T07:12:59;6.18;;;2.92;;
84766;SDS011;74995;49.824;10.994;2024-02-16T07:15:25;6.70;;;2.60;;
84766;SDS011;74995;49.824;10.994;2024-02-16T07:17:51;5.20;;;2.58;;
84766;SDS011;74995;49.824;10.994;2024-02-16T07:20:17;5.43;;;3.00;;
84766;SDS011;74995;49.824;10.994;2024-02-16T07:25:08;5.57;;;3.33;;
84766;SDS011;74995;49.824;10.994;2024-02-16T07:27:35;6.22;;;2.67;;
84766;SDS011;74995;49.824;10.994;2024-02-16T07:30:00;5.53;;;3.00;;
84766;SDS011;74995;49.824;10.994;2024-02-16T07:32:25;5.15;;;2.85;;
84766;SDS011;74995;49.824;10.994;2024-02-16T07:34:51;5.35;;;2.58;;
84766;SDS011;74995;49.824;10.994;2024-02-16T07:37:16;4.28;;;2.22;;
84766;SDS011;74995;49.824;10.994;2024-02-16T07:39:41;3.42;;;2.50;;
84766;SDS011;74995;49.824;10.994;2024-02-16T07:42:07;4.38;;;2.42;;
84766;SDS011;74995;49.824;10.994;2024-02-16T07:44:36;5.28;;;2.50;;
84766;SDS011;74995;49.824;10.994;2024-02-16T07:49:27;5.10;;;3.17;;
84766;SDS011;74995;49.824;10.994;2024-02-16T07:51:52;5.28;;;3.28;;
84766;SDS011;74995;49.824;10.994;2024-02-16T07:54:18;7.40;;;3.58;;
84766;SDS011;74995;49.824;10.994;2024-02-16T07:59:09;7.97;;;3.88;;
84766;SDS011;74995;49.824;10.994;2024-02-16T08:03:59;12.90;;;4.60;;
84766;SDS011;74995;49.824;10.994;2024-02-16T08:06:25;7.15;;;3.97;;
84766;SDS011;74995;49.824;10.994;2024-02-16T08:08:52;6.53;;;4.18;;
84766;SDS011;74995;49.824;10.994;2024-02-16T08:11:17;11.40;;;4.45;;
84766;SDS011;74995;49.824;10.994;2024-02-16T08:16:08;8.03;;;4.20;;
84766;SDS011;74995;49.824;10.994;2024-02-16T08:20:59;9.25;;;4.53;;
84766;SDS011;74995;49.824;10.994;2024-02-16T08:25:50;10.37;;;3.50;;
84766;SDS011;74995;49.824;10.994;2024-02-16T08:30:40;10.70;;;2.90;;
84766;SDS011;74995;49.824;10.994;2024-02-16T08:33:08;5.50;;;2.90;;
84766;SDS011;74995;49.824;10.994;2024-02-16T08:37:59;3.73;;;2.63;;
84766;SDS011;74995;49.824;10.994;2024-02-16T08:40:25;5.03;;;3.10;;
84766;SDS011;74995;49.824;10.994;2024-02-16T08:42:50;5.32;;;3.38;;
84766;SDS011;74995;49.824;10.994;2024-02-16T08:45:15;4.97;;;2.92;;
84766;SDS011;74995;49.824;10.994;2024-02-16T08:47:42;7.93;;;3.67;;
84766;SDS011;74995;49.824;10.994;2024-02-16T08:50:09;5.97;;;3.40;;
84766;SDS011;74995;49.824;10.994;2024-02-16T08:52:34;5.40;;;3.10;;
84766;SDS011;74995;49.824;10.994;2024-02-16T08:57:25;4.23;;;3.17;;
84766;SDS011;74995;49.824;10.994;2024-02-16T08:59:50;4.55;;;2.85;;
84766;SDS011;74995;49.824;10.994;2024-02-16T09:02:15;5.05;;;2.80;;
84766;SDS011;74995;49.824;10.994;2024-02-16T09:04:41;3.78;;;2.80;;
84766;SDS011;74995;49.824;10.994;2024-02-16T09:07:06;4.38;;;2.60;;
84766;SDS011;74995;49.824;10.994;2024-02-16T09:11:57;3.77;;;2.83;;
84766;SDS011;74995;49.824;10.994;2024-02-16T09:14:22;5.63;;;3.28;;
84766;SDS011;74995;49.824;10.994;2024-02-16T09:19:13;9.88;;;3.17;;
84766;SDS011;74995;49.824;10.994;2024-02-16T09:21:39;4.82;;;3.03;;
84766;SDS011;74995;49.824;10.994;2024-02-16T09:24:04;4.90;;;3.63;;
84766;SDS011;74995;49.824;10.994;2024-02-16T09:26:35;6.90;;;3.30;;
84766;SDS011;74995;49.824;10.994;2024-02-16T09:29:00;5.18;;;4.15;;
84766;SDS011;74995;49.824;10.994;2024-02-16T09:31:25;4.20;;;2.92;;
84766;SDS011;74995;49.824;10.994;2024-02-16T09:33:51;6.18;;;3.42;;
84766;SDS011;74995;49.824;10.994;2024-02-16T09:36:18;5.65;;;3.33;;
84766;SDS011;74995;49.824;10.994;2024-02-16T09:38:43;7.22;;;3.40;;
84766;SDS011;74995;49.824;10.994;2024-02-16T09:41:09;4.93;;;3.25;;
84766;SDS011;74995;49.824;10.994;2024-02-16T09:43:34;5.72;;;3.63;;
84766;SDS011;74995;49.824;10.994;2024-02-16T09:46:00;4.78;;;2.60;;
84766;SDS011;74995;49.824;10.994;2024-02-16T09:48:25;7.15;;;3.35;;
84766;SDS011;74995;49.824;10.994;2024-02-16T09:50:56;5.15;;;3.22;;
84766;SDS011;74995;49.824;10.994;2024-02-16T09:53:24;4.93;;;3.15;;
84766;SDS011;74995;49.824;10.994;2024-02-16T09:55:51;6.32;;;3.80;;
84766;SDS011;74995;49.824;10.994;2024-02-16T09:58:17;7.07;;;3.63;;
84766;SDS011;74995;49.824;10.994;2024-02-16T10:00:53;5.22;;;3.30;;
84766;SDS011;74995;49.824;10.994;2024-02-16T10:03:24;5.32;;;3.10;;
84766;SDS011;74995;49.824;10.994;2024-02-16T10:05:51;8.00;;;2.88;;
84766;SDS011;74995;49.824;10.994;2024-02-16T10:08:17;4.85;;;3.03;;
84766;SDS011;74995;49.824;10.994;2024-02-16T10:10:43;5.55;;;3.28;;
84766;SDS011;74995;49.824;10.994;2024-02-16T10:13:09;7.22;;;3.47;;
84766;SDS011;74995;49.824;10.994;2024-02-16T10:15:36;5.40;;;3.72;;
84766;SDS011;74995;49.824;10.994;2024-02-16T10:20:28;5.20;;;3.17;;
84766;SDS011;74995;49.824;10.994;2024-02-16T10:23:03;6.53;;;3.38;;
84766;SDS011;74995;49.824;10.994;2024-02-16T10:25:36;5.75;;;3.13;;
84766;SDS011;74995;49.824;10.994;2024-02-16T10:28:06;5.10;;;3.40;;
84766;SDS011;74995;49.824;10.994;2024-02-16T10:30:37;6.82;;;3.42;;
84766;SDS011;74995;49.824;10.994;2024-02-16T10:33:07;5.55;;;3.30;;
84766;SDS011;74995;49.824;10.994;2024-02-16T10:35:34;4.97;;;3.28;;
84766;SDS011;74995;49.824;10.994;2024-02-16T10:38:03;7.63;;;3.53;;
84766;SDS011;74995;49.824;10.994;2024-02-16T10:40:34;8.80;;;3.70;;
84766;SDS011;74995;49.824;10.994;2024-02-16T10:43:05;5.50;;;3.22;;
84766;SDS011;74995;49.824;10.994;2024-02-16T10:45:35;6.18;;;3.25;;
84766;SDS011;74995;49.824;10.994;2024-02-16T10:48:02;6.07;;;3.30;;
84766;SDS011;74995;49.824;10.994;2024-02-16T10:50:29;8.25;;;2.85;;
84766;SDS011;74995;49.824;10.994;2024-02-16T10:52:55;5.07;;;3.15;;
84766;SDS011;74995;49.824;10.994;2024-02-16T10:55:24;5.35;;;3.15;;
84766;SDS011;74995;49.824;10.994;2024-02-16T10:57:49;5.38;;;4.00;;
84766;SDS011;74995;49.824;10.994;2024-02-16T11:00:15;6.15;;;3.65;;
84766;SDS011;74995;49.824;10.994;2024-02-16T11:02:57;6.28;;;3.55;;
84766;SDS011;74995;49.824;10.994;2024-02-16T11:08:05;6.20;;;3.35;;
84766;SDS011;74995;49.824;10.994;2024-02-16T11:10:37;9.90;;;3.35;;
84766;SDS011;74995;49.824;10.994;2024-02-16T11:13:03;5.65;;;3.15;;
84766;SDS011;74995;49.824;10.994;2024-02-16T11:15:32;5.50;;;2.67;;
84766;SDS011;74995;49.824;10.994;2024-02-16T11:18:02;6.20;;;3.33;;
84766;SDS011;74995;49.824;10.994;2024-02-16T11:20:29;4.40;;;2.95;;
84766;SDS011;74995;49.824;10.994;2024-02-16T11:23:06;6.45;;;3.22;;
84766;SDS011;74995;49.824;10.994;2024-02-16T11:25:34;5.43;;;2.42;;
84766;SDS011;74995;49.824;10.994;2024-02-16T11:27:59;5.35;;;3.20;;
84766;SDS011;74995;49.824;10.994;2024-02-16T11:30:25;4.18;;;2.47;;
84766;SDS011;74995;49.824;10.994;2024-02-16T11:32:53;7.00;;;2.90;;
84766;SDS011;74995;49.824;10.994;2024-02-16T11:35:18;5.50;;;3.25;;
84766;SDS011;74995;49.824;10.994;2024-02-16T11:37:44;5.00;;;2.78;;
84766;SDS011;74995;49.824;10.994;2024-02-16T11:40:12;5.78;;;2.67;;
84766;SDS011;74995;49.824;10.994;2024-02-16T11:42:37;4.03;;;3.00;;
84766;SDS011;74995;49.824;10.994;2024-02-16T11:45:03;4.68;;;2.78;;
84766;SDS011;74995;49.824;10.994;2024-02-16T11:47:28;5.88;;;2.70;;
84766;SDS011;74995;49.824;10.994;2024-02-16T11:50:06;5.72;;;3.05;;
84766;SDS011;74995;49.824;10.994;2024-02-16T11:52:36;4.95;;;2.53;;
84766;SDS011;74995;49.824;10.994;2024-02-16T11:55:03;6.28;;;2.60;;
84766;SDS011;74995;49.824;10.994;2024-02-16T11:57:29;4.28;;;3.10;;
84766;SDS011;74995;49.824;10.994;2024-02-16T11:59:55;4.60;;;3.28;;
84766;SDS011;74995;49.824;10.994;2024-02-16T12:02:21;6.28;;;3.08;;
84766;SDS011;74995;49.824;10.994;2024-02-16T12:04:56;6.35;;;3.30;;
84766;SDS011;74995;49.824;10.994;2024-02-16T12:07:23;6.70;;;3.15;;
84766;SDS011;74995;49.824;10.994;2024-02-16T12:09:58;7.03;;;3.35;;
84766;SDS011;74995;49.824;10.994;2024-02-16T12:12:25;5.05;;;2.95;;
84766;SDS011;74995;49.824;10.994;2024-02-16T12:14:54;9.10;;;3.90;;
84766;SDS011;74995;49.824;10.994;2024-02-16T12:17:20;5.53;;;3.35;;
84766;SDS011;74995;49.824;10.994;2024-02-16T12:19:46;5.57;;;3.50;;
84766;SDS011;74995;49.824;10.994;2024-02-16T12:22:16;5.28;;;2.80;;
84766;SDS011;74995;49.824;10.994;2024-02-16T12:24:43;6.07;;;3.08;;
84766;SDS011;74995;49.824;10.994;2024-02-16T12:27:09;4.97;;;2.78;;
84766;SDS011;74995;49.824;10.994;2024-02-16T12:29:34;14.63;;;3.38;;
84766;SDS011;74995;49.824;10.994;2024-02-16T12:31:59;3.50;;;2.78;;
84766;SDS011;74995;49.824;10.994;2024-02-16T12:34:25;5.85;;;2.70;;
84766;SDS011;74995;49.824;10.994;2024-02-16T12:36:50;4.07;;;2.47;;
84766;SDS011;74995;49.824;10.994;2024-02-16T12:39:16;7.00;;;3.55;;
84766;SDS011;74995;49.824;10.994;2024-02-16T12:41:41;3.95;;;2.70;;
84766;SDS011;74995;49.824;10.994;2024-02-16T12:44:08;5.40;;;2.92;;
84766;SDS011;74995;49.824;10.994;2024-02-16T12:46:33;6.75;;;2.35;;
84766;SDS011;74995;49.824;10.994;2024-02-16T12:48:59;4.38;;;2.45;;
84766;SDS011;74995;49.824;10.994;2024-02-16T12:51:24;6.10;;;2.40;;
84766;SDS011;74995;49.824;10.994;2024-02-16T12:53:50;7.80;;;2.80;;
84766;SDS011;74995;49.824;10.994;2024-02-16T12:56:15;3.80;;;2.22;;
84766;SDS011;74995;49.824;10.994;2024-02-16T12:58:40;6.72;;;2.70;;
84766;SDS011;74995;49.824;10.994;2024-02-16T13:01:06;6.45;;;2.90;;
84766;SDS011;74995;49.824;10.994;2024-02-16T13:03:35;7.28;;;3.25;;
84766;SDS011;74995;49.824;10.994;2024-02-16T13:06:01;4.75;;;2.50;;
84766;SDS011;74995;49.824;10.994;2024-02-16T13:08:28;5.20;;;2.58;;
84766;SDS011;74995;49.824;10.994;2024-02-16T13:10:54;7.82;;;2.88;;
84766;SDS011;74995;49.824;10.994;2024-02-16T13:13:19;5.05;;;2.55;;
84766;SDS011;74995;49.824;10.994;2024-02-16T13:15:45;5.07;;;2.35;;
84766;SDS011;74995;49.824;10.994;2024-02-16T13:18:12;5.53;;;2.72;;
84766;SDS011;74995;49.824;10.994;2024-02-16T13:20:37;4.65;;;2.70;;
84766;SDS011;74995;49.824;10.994;2024-02-16T13:23:03;5.20;;;2.47;;
84766;SDS011;74995;49.824;10.994;2024-02-16T13:25:28;4.32;;;2.40;;
84766;SDS011;74995;49.824;10.994;2024-02-16T13:27:54;4.40;;;3.08;;
84766;SDS011;74995;49.824;10.994;2024-02-16T13:30:19;5.30;;;2.47;;
84766;SDS011;74995;49.824;10.994;2024-02-16T13:32:44;3.53;;;2.50;;
84766;SDS011;74995;49.824;10.994;2024-02-16T13:35:10;6.90;;;2.58;;
84766;SDS011;74995;49.824;10.994;2024-02-16T13:37:35;5.55;;;2.38;;
84766;SDS011;74995;49.824;10.994;2024-02-16T13:40:02;3.97;;;2.50;;
84766;SDS011;74995;49.824;10.994;2024-02-16T13:42:31;4.55;;;2.55;;
84766;SDS011;74995;49.824;10.994;2024-02-16T13:44:57;3.92;;;2.72;;
84766;SDS011;74995;49.824;10.994;2024-02-16T13:47:23;3.38;;;2.50;;
84766;SDS011;74995;49.824;10.994;2024-02-16T13:49:48;6.90;;;2.83;;
84766;SDS011;74995;49.824;10.994;2024-02-16T13:52:14;3.25;;;2.40;;
84766;SDS011;74995;49.824;10.994;2024-02-16T13:54:40;4.63;;;2.75;;
84766;SDS011;74995;49.824;10.994;2024-02-16T13:57:05;3.97;;;2.65;;
84766;SDS011;74995;49.824;10.994;2024-02-16T13:59:30;5.32;;;3.08;;
84766;SDS011;74995;49.824;10.994;2024-02-16T14:01:58;5.18;;;2.80;;
84766;SDS011;74995;49.824;10.994;2024-02-16T14:04:24;3.83;;;2.63;;
84766;SDS011;74995;49.824;10.994;2024-02-16T14:06:51;5.40;;;2.72;;
84766;SDS011;74995;49.824;10.994;2024-02-16T14:09:17;5.22;;;2.67;;
84766;SDS011;74995;49.824;10.994;2024-02-16T14:11:44;8.10;;;2.83;;
84766;SDS011;74995;49.824;10.994;2024-02-16T14:14:11;6.28;;;3.00;;
84766;SDS011;74995;49.824;10.994;2024-02-16T14:16:36;6.32;;;2.63;;
84766;SDS011;74995;49.824;10.994;2024-02-16T14:19:02;3.88;;;2.67;;
84766;SDS011;74995;49.824;10.994;2024-02-16T14:21:27;6.22;;;2.78;;
84766;SDS011;74995;49.824;10.994;2024-02-16T14:23:53;5.50;;;3.10;;
84766;SDS011;74995;49.824;10.994;2024-02-16T14:26:18;3.00;;;2.45;;
84766;SDS011;74995;49.824;10.994;2024-02-16T14:28:44;5.00;;;2.33;;
84766;SDS011;74995;49.824;10.994;2024-02-16T14:31:10;3.13;;;2.50;;
84766;SDS011;74995;49.824;10.994;2024-02-16T14:33:38;4.07;;;2.60;;
84766;SDS011;74995;49.824;10.994;2024-02-16T14:36:03;4.13;;;2.95;;
84766;SDS011;74995;49.824;10.994;2024-02-16T14:38:29;4.13;;;3.00;;
84766;SDS011;74995;49.824;10.994;2024-02-16T14:40:55;5.18;;;3.13;;
84766;SDS011;74995;49.824;10.994;2024-02-16T14:43:20;4.47;;;2.95;;
84766;SDS011;74995;49.824;10.994;2024-02-16T14:45:46;4.70;;;2.80;;
84766;SDS011;74995;49.824;10.994;2024-02-16T14:48:11;5.85;;;3.75;;
84766;SDS011;74995;49.824;10.994;2024-02-16T14:50:36;4.50;;;2.33;;
84766;SDS011;74995;49.824;10.994;2024-02-16T14:53:02;4.38;;;2.40;;
84766;SDS011;74995;49.824;10.994;2024-02-16T14:55:28;3.60;;;2.70;;
84766;SDS011;74995;49.824;10.994;2024-02-16T14:57:54;3.72;;;2.75;;
84766;SDS011;74995;49.824;10.994;2024-02-16T15:00:20;5.63;;;3.10;;
84766;SDS011;74995;49.824;10.994;2024-02-16T15:02:45;4.82;;;2.80;;
84766;SDS011;74995;49.824;10.994;2024-02-16T15:05:12;5.18;;;2.88;;
84766;SDS011;74995;49.824;10.994;2024-02-16T15:07:38;4.55;;;2.67;;
84766;SDS011;74995;49.824;10.994;2024-02-16T15:10:03;6.13;;;2.88;;
84766;SDS011;74995;49.824;10.994;2024-02-16T15:12:29;5.95;;;2.85;;
84766;SDS011;74995;49.824;10.994;2024-02-16T15:14:54;4.43;;;3.00;;
84766;SDS011;74995;49.824;10.994;2024-02-16T15:17:19;4.95;;;2.67;;
84766;SDS011;74995;49.824;10.994;2024-02-16T15:19:45;3.78;;;2.47;;
84766;SDS011;74995;49.824;10.994;2024-02-16T15:22:11;5.85;;;2.92;;
84766;SDS011;74995;49.824;10.994;2024-02-16T15:24:36;3.92;;;2.45;;
84766;SDS011;74995;49.824;10.994;2024-02-16T15:27:01;4.22;;;2.38;;
84766;SDS011;74995;49.824;10.994;2024-02-16T15:29:28;4.75;;;3.00;;
84766;SDS011;74995;49.824;10.994;2024-02-16T15:31:54;4.20;;;2.83;;
84766;SDS011;74995;49.824;10.994;2024-02-16T15:34:20;4.00;;;2.53;;
84766;SDS011;74995;49.824;10.994;2024-02-16T15:36:47;4.60;;;2.65;;
84766;SDS011;74995;49.824;10.994;2024-02-16T15:39:12;3.50;;;2.30;;
84766;SDS011;74995;49.824;10.994;2024-02-16T15:41:37;3.40;;;2.30;;
84766;SDS011;74995;49.824;10.994;2024-02-16T15:44:03;4.18;;;2.45;;
84766;SDS011;74995;49.824;10.994;2024-02-16T15:46:28;4.78;;;2.80;;
84766;SDS011;74995;49.824;10.994;2024-02-16T15:48:54;4.38;;;2.35;;
84766;SDS011;74995;49.824;10.994;2024-02-16T15:51:19;2.95;;;1.83;;
84766;SDS011;74995;49.824;10.994;2024-02-16T15:53:45;4.20;;;2.40;;
84766;SDS011;74995;49.824;10.994;2024-02-16T15:56:11;3.92;;;3.00;;
84766;SDS011;74995;49.824;10.994;2024-02-16T15:58:37;3.90;;;2.38;;
84766;SDS011;74995;49.824;10.994;2024-02-16T16:01:02;3.40;;;2.35;;
84766;SDS011;74995;49.824;10.994;2024-02-16T16:03:27;6.22;;;3.13;;
84766;SDS011;74995;49.824;10.994;2024-02-16T16:05:53;3.42;;;2.53;;
84766;SDS011;74995;49.824;10.994;2024-02-16T16:08:18;3.58;;;2.75;;
84766;SDS011;74995;49.824;10.994;2024-02-16T16:10:47;4.18;;;2.35;;